Time;durP1;ratioP1;P1;durP2;ratioP2;P2;SDS_P1;SDS_P2;PMS_P1;PMS_P2;Temp;Humidity;BMP_temperature;BMP_pressure;BME280_temperature;BME280_humidity;BME280_pressure;Samples;Min_cycle;Max_cycle;Signal;HPM_P1;HPM_P2
2023/07/20 00:01:03;;;;;;;;;;;;;;;11.90;53.52;95377.66;5001141;28;19928;-80
2023/07/20 00:03:28;;;;;;;;;;;;;;;12.18;53.21;95381.41;5014383;28;19929;-82
2023/07/20 00:05:53;;;;;;;;;;;;;;;12.24;52.78;95379.81;5006577;28;20397;-81
2023/07/20 00:08:18;;;;;;;;;;;;;;;12.11;52.98;95370.66;5008066;28;20290;-80
2023/07/20 00:10:44;;;;;;;;;;;;;;;12.33;52.40;95377.78;5010531;28;19976;-80
2023/07/20 00:13:11;;;;;;;;;;;;;;;12.35;52.47;95378.44;5008211;28;19917;-81
2023/07/20 00:15:37;;;;;;;;;;;;;;;12.47;52.28;95378.69;4988274;28;19921;-81
2023/07/20 00:18:02;;;;;;;;;;;;;;;12.38;52.07;95370.84;5010654;28;20059;-80
2023/07/20 00:20:28;;;;;;;;;;;;;;;12.45;51.62;95370.06;5016908;28;19972;-80
2023/07/20 00:22:54;;;;;;;;;;;;;;;12.27;52.63;95368.72;5011170;28;20517;-80
2023/07/20 00:25:20;;;;;;;;;;;;;;;12.08;53.16;95371.06;5009660;28;19988;-81
2023/07/20 00:27:45;;;;;;;;;;;;;;;12.01;53.02;95367.47;5025317;28;19913;-82
2023/07/20 00:30:10;;;;;;;;;;;;;;;12.09;53.12;95370.03;5004556;28;20440;-83
2023/07/20 00:32:36;;;;;;;;;;;;;;;12.07;53.40;95357.91;5008503;28;20386;-80
2023/07/20 00:35:01;;;;;;;;;;;;;;;12.02;53.41;95359.28;5014753;28;19960;-79
2023/07/20 00:37:26;;;;;;;;;;;;;;;11.94;53.81;95363.94;5016894;28;19963;-82
2023/07/20 00:39:52;;;;;;;;;;;;;;;11.84;54.23;95359.75;5016081;28;20300;-79
2023/07/20 00:42:18;;;;;;;;;;;;;;;11.87;53.87;95359.34;5019709;28;20410;-80
2023/07/20 00:44:43;;;;;;;;;;;;;;;12.22;53.04;95365.81;5012960;28;20194;-79
2023/07/20 00:47:08;;;;;;;;;;;;;;;12.01;53.89;95365.63;5022410;28;19913;-80
2023/07/20 00:49:34;;;;;;;;;;;;;;;12.37;53.09;95366.53;5016755;28;20181;-81
2023/07/20 00:51:59;;;;;;;;;;;;;;;12.14;53.47;95367.59;5014294;28;19914;-80
2023/07/20 00:54:25;;;;;;;;;;;;;;;12.15;53.67;95363.94;5008145;28;19941;-81
2023/07/20 00:56:50;;;;;;;;;;;;;;;11.94;54.27;95364.78;5003442;28;19921;-80
2023/07/20 00:59:15;;;;;;;;;;;;;;;12.01;54.06;95364.81;5004017;28;19948;-79
2023/07/20 01:01:41;;;;;;;;;;;;;;;12.15;53.64;95371.94;5009952;28;19952;-77
2023/07/20 01:04:06;;;;;;;;;;;;;;;12.65;52.39;95372.88;5044179;22;20369;-76
2023/07/20 01:06:49;;;;;;;;;;;;;;;12.32;53.27;95376.13;5021642;28;19934;-76
2023/07/20 01:09:18;;;;;;;;;;;;;;;12.28;53.74;95378.38;5017576;28;20421;-76
2023/07/20 01:12:19;;;;;;;;;;;;;;;12.30;53.53;95376.34;5020170;28;19917;-75
2023/07/20 01:14:44;;;;;;;;;;;;;;;12.35;53.23;95376.59;4954257;28;19927;-75
2023/07/20 01:17:10;;;;;;;;;;;;;;;12.01;54.53;95375.47;5002002;28;20015;-75
2023/07/20 01:19:35;;;;;;;;;;;;;;;12.56;53.17;95374.84;5019960;28;19925;-75
2023/07/20 01:22:05;;;;;;;;;;;;;;;12.36;53.38;95374.72;5038806;28;20531;-76
2023/07/20 01:24:49;;;;;;;;;;;;;;;12.17;54.09;95378.91;5020748;28;19920;-75
2023/07/20 01:27:33;;;;;;;;;;;;;;;12.44;53.20;95376.44;5033630;28;19940;-76
2023/07/20 01:30:04;;;;;;;;;;;;;;;12.53;53.15;95376.09;5036546;28;19938;-76
2023/07/20 01:32:29;;;;;;;;;;;;;;;12.53;52.99;95377.91;5028695;28;20431;-76
2023/07/20 01:34:55;;;;;;;;;;;;;;;12.72;52.60;95380.91;5014917;28;19917;-76
2023/07/20 01:37:20;;;;;;;;;;;;;;;12.82;52.47;95384.06;5027128;28;19964;-76
2023/07/20 01:39:45;;;;;;;;;;;;;;;12.83;52.53;95377.69;5009832;28;19913;-76
2023/07/20 01:42:11;;;;;;;;;;;;;;;12.46;53.15;95383.22;5024011;28;19925;-76
2023/07/20 01:44:37;;;;;;;;;;;;;;;12.19;54.19;95383.03;5005594;28;19956;-76
2023/07/20 01:47:02;;;;;;;;;;;;;;;12.30;54.16;95380.88;5040926;28;19978;-76
2023/07/20 01:49:27;;;;;;;;;;;;;;;12.21;54.27;95385.50;5037775;28;19921;-76
2023/07/20 01:51:52;;;;;;;;;;;;;;;12.13;54.48;95373.13;5040763;28;19951;-75
2023/07/20 01:54:18;;;;;;;;;;;;;;;12.03;54.94;95382.28;5045881;28;19925;-76
2023/07/20 01:56:43;;;;;;;;;;;;;;;11.88;55.20;95382.38;5038335;28;19917;-76
2023/07/20 01:59:08;;;;;;;;;;;;;;;11.97;55.60;95380.38;5020256;28;20568;-77
2023/07/20 02:01:33;;;;;;;;;;;;;;;11.99;55.35;95382.84;5035042;28;20423;-75
2023/07/20 02:03:59;;;;;;;;;;;;;;;11.70;56.24;95387.31;5019614;28;20046;-76
2023/07/20 02:06:24;;;;;;;;;;;;;;;11.60;57.10;95391.13;5018584;28;20699;-76
2023/07/20 02:08:49;;;;;;;;;;;;;;;11.56;57.71;95389.84;5019791;28;19971;-75
2023/07/20 02:11:14;;;;;;;;;;;;;;;11.70;57.44;95379.31;5004011;28;19918;-76
2023/07/20 02:13:40;;;;;;;;;;;;;;;11.45;58.33;95390.34;5025271;28;19960;-76
2023/07/20 02:16:05;;;;;;;;;;;;;;;12.08;56.71;95376.41;5021463;28;20489;-75
2023/07/20 02:18:30;;;;;;;;;;;;;;;11.93;57.35;95378.28;5020284;28;19917;-75
2023/07/20 02:20:55;;;;;;;;;;;;;;;12.18;56.28;95377.88;5018897;28;19925;-76
2023/07/20 02:23:21;;;;;;;;;;;;;;;12.15;57.05;95385.28;5020107;28;19996;-76
2023/07/20 02:25:46;;;;;;;;;;;;;;;12.18;56.83;95380.56;5001618;28;20356;-76
2023/07/20 02:28:14;;;;;;;;;;;;;;;12.25;56.64;95379.59;5019148;28;20297;-75
2023/07/20 02:30:39;;;;;;;;;;;;;;;12.50;55.70;95373.81;5016098;28;20328;-75
2023/07/20 02:33:06;;;;;;;;;;;;;;;12.12;56.59;95374.16;5028925;28;19921;-76
2023/07/20 02:35:31;;;;;;;;;;;;;;;12.24;56.37;95379.81;5043645;28;19971;-75
2023/07/20 02:37:56;;;;;;;;;;;;;;;11.95;56.93;95373.56;5040016;28;19952;-76
2023/07/20 02:40:23;;;;;;;;;;;;;;;11.87;57.37;95379.88;5037414;28;20377;-76
2023/07/20 02:42:48;;;;;;;;;;;;;;;12.33;56.58;95367.94;5038281;28;19929;-75
2023/07/20 02:45:13;;;;;;;;;;;;;;;12.63;55.36;95373.06;5039658;28;20355;-76
2023/07/20 02:47:39;;;;;;;;;;;;;;;13.10;53.95;95359.13;5039937;28;19931;-75
2023/07/20 02:50:06;;;;;;;;;;;;;;;12.90;54.26;95357.16;5039415;28;19921;-76
2023/07/20 02:52:31;;;;;;;;;;;;;;;13.04;53.74;95367.91;5040845;28;19920;-76
2023/07/20 02:54:56;;;;;;;;;;;;;;;12.86;54.32;95360.41;5043198;28;19928;-76
2023/07/20 02:57:22;;;;;;;;;;;;;;;13.08;53.56;95361.16;5039599;28;20007;-76
2023/07/20 02:59:47;;;;;;;;;;;;;;;13.03;53.51;95355.59;5040116;28;19990;-76
2023/07/20 03:02:12;;;;;;;;;;;;;;;13.09;53.35;95354.78;5028268;28;20026;-75
2023/07/20 03:04:38;;;;;;;;;;;;;;;13.32;52.55;95353.59;5019060;28;19925;-76
2023/07/20 03:07:07;;;;;;;;;;;;;;;13.53;52.13;95357.16;5014206;28;20008;-76
2023/07/20 03:09:32;;;;;;;;;;;;;;;13.44;52.22;95351.19;5019453;28;20399;-77
2023/07/20 03:11:58;;;;;;;;;;;;;;;13.35;52.33;95353.22;5026025;28;19996;-76
2023/07/20 03:14:23;;;;;;;;;;;;;;;13.33;52.38;95354.44;5032793;28;20823;-76
2023/07/20 03:16:49;;;;;;;;;;;;;;;13.16;52.64;95355.63;5034712;28;19924;-76
2023/07/20 03:19:14;;;;;;;;;;;;;;;13.53;51.84;95362.50;5021085;28;19927;-77
2023/07/20 03:21:40;;;;;;;;;;;;;;;13.36;52.46;95362.88;5028856;28;19921;-76
2023/07/20 03:24:06;;;;;;;;;;;;;;;13.34;52.39;95362.25;5039952;28;19920;-76
2023/07/20 03:26:31;;;;;;;;;;;;;;;13.53;52.22;95362.50;5037942;28;20100;-76
2023/07/20 03:28:57;;;;;;;;;;;;;;;13.29;52.48;95372.72;5036500;28;19924;-76
2023/07/20 03:31:22;;;;;;;;;;;;;;;13.10;53.03;95374.31;5039316;28;20137;-76
2023/07/20 03:33:47;;;;;;;;;;;;;;;13.06;53.20;95373.91;5032985;28;19924;-76
2023/07/20 03:36:12;;;;;;;;;;;;;;;13.15;52.72;95370.03;5039380;28;20377;-76
2023/07/20 03:38:38;;;;;;;;;;;;;;;12.95;54.11;95374.44;5038334;28;19967;-76
2023/07/20 03:41:03;;;;;;;;;;;;;;;13.00;53.77;95369.34;5037717;28;20131;-76
2023/07/20 03:43:28;;;;;;;;;;;;;;;12.90;53.75;95375.88;5039283;28;19928;-76
2023/07/20 03:45:54;;;;;;;;;;;;;;;12.84;54.44;95370.47;5020103;28;19951;-76
2023/07/20 03:48:19;;;;;;;;;;;;;;;12.73;54.83;95372.69;5039327;28;20135;-76
2023/07/20 03:50:45;;;;;;;;;;;;;;;12.34;56.00;95388.25;5036877;28;19952;-76
2023/07/20 03:53:11;;;;;;;;;;;;;;;12.18;56.34;95380.56;5033792;28;19920;-76
2023/07/20 03:55:36;;;;;;;;;;;;;;;11.43;58.73;95376.41;5038818;28;19932;-76
2023/07/20 03:58:01;;;;;;;;;;;;;;;11.82;57.51;95375.13;5035302;28;19947;-76
2023/07/20 04:00:27;;;;;;;;;;;;;;;12.03;57.20;95376.09;5038836;28;20344;-76
2023/07/20 04:02:52;;;;;;;;;;;;;;;11.69;58.28;95383.81;5037140;28;20277;-76
2023/07/20 04:05:18;;;;;;;;;;;;;;;11.93;57.82;95379.09;5041093;28;20020;-76
2023/07/20 04:07:43;;;;;;;;;;;;;;;12.03;57.51;95384.94;5041243;28;20011;-76
2023/07/20 04:10:08;;;;;;;;;;;;;;;11.42;59.45;95385.41;5042713;28;19916;-76
2023/07/20 04:12:34;;;;;;;;;;;;;;;11.18;60.35;95387.41;5040973;28;19925;-75
2023/07/20 04:14:59;;;;;;;;;;;;;;;11.03;61.00;95382.91;5024168;28;19994;-76
2023/07/20 04:17:24;;;;;;;;;;;;;;;10.23;63.64;95381.63;5042406;28;19917;-76
2023/07/20 04:19:50;;;;;;;;;;;;;;;10.63;62.73;95383.22;5058014;28;19948;-75
2023/07/20 04:22:15;;;;;;;;;;;;;;;10.92;61.52;95378.88;5039919;28;19944;-76
2023/07/20 04:24:41;;;;;;;;;;;;;;;10.90;61.40;95380.91;5042064;28;19921;-76
2023/07/20 04:27:06;;;;;;;;;;;;;;;11.27;60.18;95364.97;5042379;28;20336;-76
2023/07/20 04:29:32;;;;;;;;;;;;;;;11.46;59.51;95374.16;5039851;28;19921;-76
2023/07/20 04:31:57;;;;;;;;;;;;;;;11.25;60.01;95382.97;5042112;28;19927;-76
2023/07/20 04:34:22;;;;;;;;;;;;;;;11.06;60.74;95387.88;5041632;28;19927;-76
2023/07/20 04:36:48;;;;;;;;;;;;;;;11.64;59.38;95392.41;5040734;28;19920;-76
2023/07/20 04:39:13;;;;;;;;;;;;;;;11.73;58.93;95384.28;5042105;28;20441;-76
2023/07/20 04:41:38;;;;;;;;;;;;;;;11.70;58.50;95380.13;5039775;28;19920;-76
2023/07/20 04:44:04;;;;;;;;;;;;;;;12.01;58.39;95378.97;5023230;28;19975;-76
2023/07/20 04:46:29;;;;;;;;;;;;;;;11.61;59.62;95378.63;5041661;28;19924;-76
2023/07/20 04:48:54;;;;;;;;;;;;;;;11.88;58.56;95387.69;5042071;28;19921;-76
2023/07/20 04:51:20;;;;;;;;;;;;;;;11.80;58.75;95381.66;5041865;28;20381;-76
2023/07/20 04:53:48;;;;;;;;;;;;;;;11.36;60.31;95393.13;5041273;28;19921;-76
2023/07/20 04:56:14;;;;;;;;;;;;;;;11.55;60.04;95398.88;5041348;28;19927;-75
2023/07/20 04:58:39;;;;;;;;;;;;;;;11.73;59.29;95389.63;5040273;28;19917;-77
2023/07/20 05:01:04;;;;;;;;;;;;;;;11.58;59.47;95393.16;5039764;28;19921;-76
2023/07/20 05:03:29;;;;;;;;;;;;;;;11.63;59.68;95387.25;5041586;28;19920;-75
2023/07/20 05:05:56;;;;;;;;;;;;;;;11.21;60.54;95395.00;5033977;28;20400;-76
2023/07/20 05:08:24;;;;;;;;;;;;;;;10.99;61.56;95398.41;5039049;28;20472;-76
2023/07/20 05:10:50;;;;;;;;;;;;;;;11.02;61.27;95393.75;5033800;28;19952;-76
2023/07/20 05:13:15;;;;;;;;;;;;;;;10.76;62.27;95401.22;5040765;28;20362;-76
2023/07/20 05:15:40;;;;;;;;;;;;;;;11.13;61.08;95387.97;5040452;28;20473;-76
2023/07/20 05:18:05;;;;;;;;;;;;;;;11.32;60.55;95391.06;5040558;28;20012;-75
2023/07/20 05:20:33;;;;;;;;;;;;;;;10.60;62.72;95381.75;5040507;28;20050;-76
2023/07/20 05:22:58;;;;;;;;;;;;;;;10.60;62.39;95386.22;5038642;28;19933;-76
2023/07/20 05:25:23;;;;;;;;;;;;;;;10.65;62.85;95383.03;5054838;28;19952;-76
2023/07/20 05:27:49;;;;;;;;;;;;;;;10.60;63.04;95380.91;5039691;28;20033;-75
2023/07/20 05:30:14;;;;;;;;;;;;;;;10.57;63.61;95390.09;5040418;28;19917;-76
2023/07/20 05:32:39;;;;;;;;;;;;;;;11.05;61.71;95372.88;5038804;28;19913;-76
2023/07/20 05:35:05;;;;;;;;;;;;;;;10.81;62.38;95385.50;5021235;28;19916;-75
2023/07/20 05:37:30;;;;;;;;;;;;;;;10.92;62.49;95378.06;5038203;28;19978;-76
2023/07/20 05:39:55;;;;;;;;;;;;;;;10.48;63.63;95394.69;5040194;28;20304;-76
2023/07/20 05:42:21;;;;;;;;;;;;;;;10.96;61.92;95382.84;5036612;28;19929;-76
2023/07/20 05:44:48;;;;;;;;;;;;;;;10.83;62.35;95382.66;5055085;28;19943;-75
2023/07/20 05:47:13;;;;;;;;;;;;;;;10.77;62.33;95386.06;5039900;28;20530;-76
2023/07/20 05:49:38;;;;;;;;;;;;;;;10.42;63.45;95384.78;5039904;28;20022;-77
2023/07/20 05:52:04;;;;;;;;;;;;;;;10.71;63.14;95387.63;5038569;28;20399;-76
2023/07/20 05:54:29;;;;;;;;;;;;;;;10.93;62.55;95387.69;5039336;28;20011;-76
2023/07/20 05:56:54;;;;;;;;;;;;;;;10.95;62.40;95391.00;5037160;28;19959;-76
2023/07/20 05:59:19;;;;;;;;;;;;;;;10.84;62.25;95393.13;5037357;28;19928;-75
2023/07/20 06:01:45;;;;;;;;;;;;;;;10.21;63.65;95380.97;5053962;28;20416;-75
2023/07/20 06:04:10;;;;;;;;;;;;;;;11.20;61.83;95390.69;5033488;28;19941;-68
2023/07/20 06:06:35;;;;;;;;;;;;;;;10.49;63.88;95391.03;5031279;28;19932;-68
2023/07/20 06:09:05;;;;;;;;;;;;;;;11.09;62.12;95397.34;5033263;28;20612;-69
2023/07/20 06:11:30;;;;;;;;;;;;;;;10.31;63.91;95399.38;5038219;28;19925;-68
2023/07/20 06:13:56;;;;;;;;;;;;;;;10.42;63.72;95398.09;5036527;28;20135;-68
2023/07/20 06:16:21;;;;;;;;;;;;;;;10.30;63.72;95397.69;5035685;28;20450;-68
2023/07/20 06:18:46;;;;;;;;;;;;;;;10.54;62.82;95403.75;5036740;28;19929;-69
2023/07/20 06:21:12;;;;;;;;;;;;;;;10.45;63.54;95408.38;5034560;28;20507;-69
2023/07/20 06:23:37;;;;;;;;;;;;;;;10.07;64.54;95411.88;5037689;28;20064;-68
2023/07/20 06:26:02;;;;;;;;;;;;;;;10.30;63.48;95421.63;5037195;28;19966;-69
2023/07/20 06:28:27;;;;;;;;;;;;;;;10.09;64.02;95420.50;5031313;28;20047;-69
2023/07/20 06:30:58;;;;;;;;;;;;;;;9.88;64.42;95415.84;5034839;28;19964;-69
2023/07/20 06:33:23;;;;;;;;;;;;;;;10.56;62.50;95414.22;5030766;28;19921;-69
2023/07/20 06:35:48;;;;;;;;;;;;;;;10.34;63.40;95417.59;5032308;28;20046;-69
2023/07/20 06:38:14;;;;;;;;;;;;;;;10.64;62.25;95414.13;5032711;28;20519;-69
2023/07/20 06:40:39;;;;;;;;;;;;;;;11.41;60.78;95416.56;5037296;28;20023;-69
2023/07/20 06:43:04;;;;;;;;;;;;;;;10.99;60.37;95421.59;5032933;28;19971;-68
2023/07/20 06:45:29;;;;;;;;;;;;;;;11.41;59.55;95416.56;5033101;28;19927;-69
2023/07/20 06:47:55;;;;;;;;;;;;;;;11.73;58.61;95409.09;5033012;28;19960;-69
2023/07/20 06:50:20;;;;;;;;;;;;;;;11.33;59.64;95416.69;5052971;28;19928;-69
2023/07/20 06:52:47;;;;;;;;;;;;;;;11.71;58.67;95412.97;5031100;28;19924;-69
2023/07/20 06:55:12;;;;;;;;;;;;;;;12.50;56.50;95411.19;5037210;28;20434;-69
2023/07/20 06:57:38;;;;;;;;;;;;;;;12.46;54.75;95425.94;5035567;28;20035;-69
2023/07/20 07:00:04;;;;;;;;;;;;;;;12.59;54.85;95422.53;5037182;28;19927;-69
2023/07/20 07:02:29;;;;;;;;;;;;;;;12.37;56.04;95419.91;5033363;28;19996;-69
2023/07/20 07:04:55;;;;;;;;;;;;;;;11.66;58.79;95418.84;5037470;28;19933;-69
2023/07/20 07:07:20;;;;;;;;;;;;;;;11.56;57.25;95426.38;5036636;28;20389;-69
2023/07/20 07:09:45;;;;;;;;;;;;;;;11.66;57.45;95426.84;5038716;28;19963;-69
2023/07/20 07:12:11;;;;;;;;;;;;;;;11.60;57.86;95419.63;5035496;28;19950;-69
2023/07/20 07:14:36;;;;;;;;;;;;;;;12.21;56.30;95423.69;5034467;28;19929;-69
2023/07/20 07:17:01;;;;;;;;;;;;;;;12.15;54.96;95417.31;5037606;28;19921;-69
2023/07/20 07:19:26;;;;;;;;;;;;;;;12.13;55.03;95418.50;5033473;28;20008;-69
2023/07/20 07:21:52;;;;;;;;;;;;;;;11.39;57.33;95432.75;5033406;28;20262;-69
2023/07/20 07:24:17;;;;;;;;;;;;;;;11.51;56.43;95437.59;5034716;28;19929;-69
2023/07/20 07:26:42;;;;;;;;;;;;;;;11.36;56.29;95437.63;5035569;28;20437;-69
2023/07/20 07:29:07;;;;;;;;;;;;;;;11.29;56.12;95431.41;5031446;28;20692;-69
2023/07/20 07:31:34;;;;;;;;;;;;;;;11.69;55.41;95433.69;5031202;28;19927;-69
2023/07/20 07:33:59;;;;;;;;;;;;;;;11.57;55.40;95431.50;5036988;28;19925;-68
2023/07/20 07:36:25;;;;;;;;;;;;;;;12.64;54.44;95435.28;5036828;28;19971;-68
2023/07/20 07:38:50;;;;;;;;;;;;;;;12.71;52.13;95430.00;5037191;28;19952;-69
2023/07/20 07:41:15;;;;;;;;;;;;;;;12.08;53.25;95432.44;5034892;28;20032;-69
2023/07/20 07:43:40;;;;;;;;;;;;;;;13.02;51.98;95431.44;5038252;28;19928;-69
2023/07/20 07:46:06;;;;;;;;;;;;;;;12.48;52.12;95431.91;5036457;28;19932;-69
2023/07/20 07:48:31;;;;;;;;;;;;;;;12.98;52.38;95440.84;5038242;28;19917;-69
2023/07/20 07:50:56;;;;;;;;;;;;;;;12.66;51.47;95446.63;5037545;28;19931;-70
2023/07/20 07:53:21;;;;;;;;;;;;;;;13.25;50.43;95438.31;5039727;28;19975;-69
2023/07/20 07:55:47;;;;;;;;;;;;;;;12.01;52.03;95444.84;5042300;28;19924;-68
2023/07/20 07:58:13;;;;;;;;;;;;;;;12.94;48.87;95440.41;5039528;28;19917;-69
2023/07/20 08:00:38;;;;;;;;;;;;;;;12.63;50.12;95455.00;5038585;28;20496;-68
2023/07/20 08:03:04;;;;;;;;;;;;;;;13.09;49.95;95445.63;5039745;28;19986;-69
2023/07/20 08:05:29;;;;;;;;;;;;;;;12.12;52.04;95444.38;5038929;28;20405;-69
2023/07/20 08:07:54;;;;;;;;;;;;;;;12.06;52.26;95438.91;5038512;28;20289;-68
2023/07/20 08:10:19;;;;;;;;;;;;;;;12.67;52.13;95449.09;5040677;28;19925;-69
2023/07/20 08:12:45;;;;;;;;;;;;;;;13.22;49.44;95452.91;5037402;28;19928;-69
2023/07/20 08:15:14;;;;;;;;;;;;;;;12.87;49.70;95448.38;5039979;28;19960;-69
2023/07/20 08:17:39;;;;;;;;;;;;;;;12.60;49.49;95447.38;5040895;28;20012;-69
2023/07/20 08:20:06;;;;;;;;;;;;;;;13.10;47.93;95447.31;5038993;28;19921;-69
2023/07/20 08:22:31;;;;;;;;;;;;;;;12.99;47.44;95454.00;5040149;28;19975;-69
2023/07/20 08:24:56;;;;;;;;;;;;;;;12.70;48.92;95458.56;5040186;28;19968;-69
2023/07/20 08:27:21;;;;;;;;;;;;;;;12.67;48.74;95459.78;5032942;28;19917;-69
2023/07/20 08:29:47;;;;;;;;;;;;;;;13.15;48.66;95462.72;5038592;28;19931;-69
2023/07/20 08:32:14;;;;;;;;;;;;;;;12.99;48.65;95469.22;5038215;28;20610;-75
2023/07/20 08:34:39;;;;;;;;;;;;;;;13.28;46.80;95478.84;5024745;28;20458;-75
2023/07/20 08:37:05;;;;;;;;;;;;;;;13.50;47.01;95468.00;5038631;28;20008;-75
2023/07/20 08:39:30;;;;;;;;;;;;;;;13.16;46.62;95477.75;5039769;28;19921;-75
2023/07/20 08:41:56;;;;;;;;;;;;;;;13.16;47.84;95483.13;5036369;28;19929;-75
2023/07/20 08:44:23;;;;;;;;;;;;;;;13.09;48.16;95483.06;5035585;28;20513;-75
2023/07/20 08:46:48;;;;;;;;;;;;;;;13.03;49.31;95470.50;5036102;28;19920;-75
2023/07/20 08:49:13;;;;;;;;;;;;;;;13.37;48.40;95479.50;5038599;28;20335;-75
2023/07/20 08:51:39;;;;;;;;;;;;;;;14.07;48.36;95477.66;5037499;28;19925;-75
2023/07/20 08:54:04;;;;;;;;;;;;;;;14.58;44.78;95467.38;5039437;28;19923;-76
2023/07/20 08:56:29;;;;;;;;;;;;;;;14.55;46.11;95468.63;5018510;28;20563;-75
2023/07/20 08:58:54;;;;;;;;;;;;;;;15.45;42.15;95470.91;5038542;28;19924;-75
2023/07/20 09:01:20;;;;;;;;;;;;;;;16.39;40.52;95469.59;5037765;28;19974;-75
2023/07/20 09:03:45;;;;;;;;;;;;;;;15.08;40.69;95472.28;5052019;28;19979;-75
2023/07/20 09:06:10;;;;;;;;;;;;;;;14.87;42.18;95481.41;5040445;28;20066;-75
2023/07/20 09:08:39;;;;;;;;;;;;;;;14.84;42.11;95466.56;5039371;28;19920;-72
2023/07/20 09:11:04;;;;;;;;;;;;;;;14.65;43.99;95472.75;5053809;28;19917;-72
2023/07/20 09:13:29;;;;;;;;;;;;;;;14.53;45.11;95465.34;5054965;28;19935;-72
2023/07/20 09:15:54;;;;;;;;;;;;;;;14.96;44.42;95465.94;5038132;28;19964;-71
2023/07/20 09:18:23;;;;;;;;;;;;;;;14.63;44.53;95464.06;5040223;28;19921;-71
2023/07/20 09:20:49;;;;;;;;;;;;;;;15.67;42.66;95462.59;5036929;28;20019;-71
2023/07/20 09:23:14;;;;;;;;;;;;;;;15.33;42.79;95462.72;5038810;28;20051;-73
2023/07/20 09:25:40;;;;;;;;;;;;;;;15.42;41.19;95465.97;5039359;28;19943;-73
2023/07/20 09:28:05;;;;;;;;;;;;;;;14.80;41.85;95476.06;5037130;28;20274;-73
2023/07/20 09:30:31;;;;;;;;;;;;;;;14.26;44.65;95469.84;5040433;28;20389;-70
2023/07/20 09:32:56;;;;;;;;;;;;;;;14.51;44.73;95469.25;5038512;28;19971;-71
2023/07/20 09:35:21;;;;;;;;;;;;;;;15.08;43.59;95468.75;5036120;28;20689;-73
2023/07/20 09:37:48;;;;;;;;;;;;;;;15.33;42.24;95463.53;5034192;28;19928;-72
2023/07/20 09:40:14;;;;;;;;;;;;;;;14.89;41.58;95462.44;5034339;28;19951;-71
2023/07/20 09:42:39;;;;;;;;;;;;;;;15.12;41.28;95461.94;5034094;28;19956;-71
2023/07/20 09:45:06;;;;;;;;;;;;;;;15.99;39.97;95459.94;5030047;28;20185;-73
2023/07/20 09:47:33;;;;;;;;;;;;;;;15.92;38.89;95461.84;5030546;28;20682;-72
2023/07/20 09:49:59;;;;;;;;;;;;;;;16.35;38.66;95465.72;5033710;28;19963;-74
2023/07/20 09:52:24;;;;;;;;;;;;;;;15.71;40.54;95461.13;5037413;28;19999;-72
2023/07/20 09:54:50;;;;;;;;;;;;;;;15.56;39.91;95461.41;5027710;28;20341;-72
2023/07/20 09:57:15;;;;;;;;;;;;;;;15.67;40.95;95460.72;5030965;28;19977;-70
2023/07/20 09:59:40;;;;;;;;;;;;;;;16.22;37.87;95464.72;5029371;28;20001;-72
2023/07/20 10:02:08;;;;;;;;;;;;;;;16.72;37.81;95465.78;5018130;28;19925;-72
2023/07/20 10:04:33;;;;;;;;;;;;;;;16.51;37.77;95467.84;5029278;28;20433;-71
2023/07/20 10:06:58;;;;;;;;;;;;;;;16.49;38.71;95464.53;5042968;28;19925;-74
2023/07/20 10:09:24;;;;;;;;;;;;;;;15.88;40.02;95458.78;5042472;28;19927;-72
2023/07/20 10:11:52;;;;;;;;;;;;;;;15.98;41.06;95464.47;5037380;28;19967;-71
2023/07/20 10:14:19;;;;;;;;;;;;;;;15.45;39.62;95455.66;5034741;28;20493;-71
2023/07/20 10:16:48;;;;;;;;;;;;;;;15.45;39.48;95473.59;5036799;28;19925;-73
2023/07/20 10:19:17;;;;;;;;;;;;;;;15.07;39.00;95465.28;5034496;28;19916;-71
2023/07/20 10:21:44;;;;;;;;;;;;;;;15.85;37.99;95456.50;5037150;28;19925;-71
2023/07/20 10:24:11;;;;;;;;;;;;;;;16.20;37.82;95460.59;5034496;28;19925;-75
2023/07/20 10:26:36;;;;;;;;;;;;;;;16.76;34.85;95447.38;5037244;28;20451;-75
2023/07/20 10:29:01;;;;;;;;;;;;;;;16.85;36.56;95466.69;5037507;28;20003;-74
2023/07/20 10:31:28;;;;;;;;;;;;;;;17.22;34.18;95450.63;5038226;28;20011;-75
2023/07/20 10:33:53;;;;;;;;;;;;;;;17.52;32.88;95451.72;5020042;28;20421;-75
2023/07/20 10:36:24;;;;;;;;;;;;;;;17.44;33.05;95444.78;5026929;28;19982;-75
2023/07/20 10:38:53;;;;;;;;;;;;;;;17.12;33.26;95447.63;5040898;28;20067;-75
2023/07/20 10:41:18;;;;;;;;;;;;;;;16.83;34.09;95442.72;5044455;28;20077;-75
2023/07/20 10:43:44;;;;;;;;;;;;;;;17.86;33.23;95437.84;5050025;28;19948;-74
2023/07/20 10:46:10;;;;;;;;;;;;;;;18.39;31.79;95440.78;5048953;28;19924;-75
2023/07/20 10:48:35;;;;;;;;;;;;;;;18.09;31.87;95441.66;5037616;28;19983;-75
2023/07/20 10:51:11;;;;;;;;;;;;;;;17.07;35.50;95442.09;5039847;28;19917;-75
2023/07/20 10:53:36;;;;;;;;;;;;;;;16.77;36.06;95431.00;5038131;28;19962;-75
2023/07/20 10:56:22;;;;;;;;;;;;;;;16.74;35.91;95430.63;5038431;28;19921;-75
2023/07/20 10:58:47;;;;;;;;;;;;;;;17.77;35.22;95430.06;5031763;28;19936;-69
2023/07/20 11:01:13;;;;;;;;;;;;;;;16.96;35.22;95425.63;5034981;28;19925;-68
2023/07/20 11:03:39;;;;;;;;;;;;;;;17.78;34.67;95430.91;5035805;28;19924;-73
2023/07/20 11:06:23;;;;;;;;;;;;;;;17.92;33.54;95439.63;5027878;28;19972;-70
2023/07/20 11:08:48;;;;;;;;;;;;;;;17.14;34.53;95438.28;5033275;28;19916;-71
2023/07/20 11:11:24;;;;;;;;;;;;;;;16.99;34.50;95438.66;5036438;28;20192;-69
2023/07/20 11:13:59;;;;;;;;;;;;;;;16.89;34.76;95439.16;5032320;28;19921;-67
2023/07/20 11:16:39;;;;;;;;;;;;;;;17.07;34.32;95434.03;5038444;28;19971;-67
2023/07/20 11:19:05;;;;;;;;;;;;;;;16.49;34.02;95439.56;5038891;28;20001;-68
2023/07/20 11:21:37;;;;;;;;;;;;;;;16.32;35.70;95437.38;5037707;28;19924;-66
2023/07/20 11:24:06;;;;;;;;;;;;;;;16.48;35.15;95430.66;5040312;28;19923;-68
2023/07/20 11:26:39;;;;;;;;;;;;;;;16.07;36.20;95440.03;5040794;28;19917;-72
2023/07/20 11:29:04;;;;;;;;;;;;;;;16.67;35.83;95437.94;5035166;28;20349;-72
2023/07/20 11:31:29;;;;;;;;;;;;;;;17.84;34.39;95437.22;5040474;28;19921;-75
2023/07/20 11:33:54;;;;;;;;;;;;;;;17.68;32.60;95428.75;5038011;28;20015;-76
2023/07/20 11:36:20;;;;;;;;;;;;;;;17.22;34.15;95442.56;5043774;28;20335;-75
2023/07/20 11:38:45;;;;;;;;;;;;;;;17.57;34.43;95442.97;5044899;28;19920;-76
2023/07/20 11:41:11;;;;;;;;;;;;;;;17.59;33.58;95420.16;5040284;28;19924;-75
2023/07/20 11:43:37;;;;;;;;;;;;;;;17.84;32.47;95431.84;5040639;28;19960;-76
2023/07/20 11:46:04;;;;;;;;;;;;;;;18.50;31.60;95431.06;5053933;28;20014;-75
2023/07/20 11:48:29;;;;;;;;;;;;;;;18.12;31.26;95425.84;5041795;28;19912;-76
2023/07/20 11:50:55;;;;;;;;;;;;;;;18.28;32.42;95429.75;5040698;28;19928;-75
2023/07/20 11:53:20;;;;;;;;;;;;;;;18.82;31.10;95423.47;5041397;28;20027;-75
2023/07/20 11:55:45;;;;;;;;;;;;;;;18.52;32.49;95427.06;5041982;28;19966;-76
2023/07/20 11:58:10;;;;;;;;;;;;;;;18.35;32.35;95421.53;5039662;28;19983;-74
2023/07/20 12:00:38;;;;;;;;;;;;;;;18.45;32.68;95423.66;5057184;28;19917;-74
2023/07/20 12:03:06;;;;;;;;;;;;;;;18.15;31.21;95427.28;5022626;28;19921;-74
2023/07/20 12:05:31;;;;;;;;;;;;;;;18.56;31.64;95427.44;5034650;28;19929;-75
2023/07/20 12:07:57;;;;;;;;;;;;;;;18.57;30.83;95418.28;5038985;28;19999;-75
2023/07/20 12:10:26;;;;;;;;;;;;;;;18.54;31.31;95424.97;5040700;28;19917;-75
2023/07/20 12:12:51;;;;;;;;;;;;;;;18.50;31.79;95426.50;5038838;28;19917;-75
2023/07/20 12:15:19;;;;;;;;;;;;;;;19.05;30.09;95426.38;5039427;28;19978;-75
2023/07/20 12:17:45;;;;;;;;;;;;;;;18.13;31.98;95429.38;5040155;28;19921;-75
2023/07/20 12:20:10;;;;;;;;;;;;;;;18.05;31.78;95425.94;5023111;28;20285;-74
2023/07/20 12:22:43;;;;;;;;;;;;;;;18.08;31.16;95429.25;5034193;28;19925;-71
2023/07/20 12:25:08;;;;;;;;;;;;;;;18.42;30.17;95418.72;5032177;28;19928;-72
2023/07/20 12:27:35;;;;;;;;;;;;;;;18.60;30.65;95415.16;5033619;28;20272;-72
2023/07/20 12:30:01;;;;;;;;;;;;;;;18.66;30.29;95408.00;5038946;28;19997;-71
2023/07/20 12:32:26;;;;;;;;;;;;;;;18.61;29.69;95415.97;5035913;28;20439;-72
2023/07/20 12:34:51;;;;;;;;;;;;;;;18.89;29.75;95406.31;5039860;28;19940;-73
2023/07/20 12:37:17;;;;;;;;;;;;;;;19.15;29.73;95412.28;5040027;28;19952;-76
2023/07/20 12:39:46;;;;;;;;;;;;;;;18.94;30.32;95420.75;5040805;28;19939;-75
2023/07/20 12:42:12;;;;;;;;;;;;;;;18.48;30.41;95415.13;5040165;28;20237;-75